createdAt,value
2022-11-16T00:02:29.323Z,11.14
2022-11-16T00:04:55.900Z,11.18
2022-11-16T00:07:22.300Z,11.10
2022-11-16T00:09:48.767Z,10.75
2022-11-16T00:12:15.144Z,11.01
2022-11-16T00:14:41.511Z,10.72
2022-11-16T00:17:07.915Z,10.84
2022-11-16T00:19:34.344Z,11.19
2022-11-16T00:22:00.809Z,11.11
2022-11-16T00:24:27.269Z,11.12
2022-11-16T00:26:55.026Z,10.84
2022-11-16T00:29:24.331Z,11.20
2022-11-16T00:31:51.197Z,10.76
2022-11-16T00:34:18.419Z,11.12
2022-11-16T00:36:45.682Z,11.19
2022-11-16T00:39:16.639Z,10.73
2022-11-16T00:41:43.782Z,10.79
2022-11-16T00:44:10.812Z,11.08
2022-11-16T00:46:37.249Z,11.12
2022-11-16T00:49:04.938Z,11.17
2022-11-16T00:51:31.898Z,11.13
2022-11-16T00:53:58.279Z,11.16
2022-11-16T00:56:24.671Z,11.13
2022-11-16T00:58:51.078Z,10.80
2022-11-16T01:01:18.150Z,11.14
2022-11-16T01:03:44.975Z,11.08
2022-11-16T01:06:13.367Z,11.24
2022-11-16T01:08:40.892Z,10.79
2022-11-16T01:11:08.148Z,11.03
2022-11-16T01:13:34.560Z,11.18
2022-11-16T01:16:00.974Z,10.97
2022-11-16T01:18:27.379Z,10.90
2022-11-16T01:20:53.779Z,10.95
2022-11-16T01:23:20.193Z,11.12
2022-11-16T01:25:46.619Z,11.05
2022-11-16T01:28:13.039Z,11.24
2022-11-16T01:30:39.488Z,11.23
2022-11-16T01:33:05.897Z,10.83
2022-11-16T01:35:32.292Z,10.77
2022-11-16T01:37:58.680Z,11.11
2022-11-16T01:40:27.408Z,10.67
2022-11-16T01:42:53.834Z,10.67
2022-11-16T01:45:28.477Z,10.63
2022-11-16T01:47:55.158Z,11.06
2022-11-16T01:50:22.718Z,10.71
2022-11-16T01:52:54.433Z,10.82
2022-11-16T01:55:23.164Z,11.07
2022-11-16T01:57:50.355Z,11.01
2022-11-16T02:00:17.685Z,10.97
2022-11-16T02:02:44.338Z,10.97
2022-11-16T02:05:14.011Z,10.95
2022-11-16T02:07:57.586Z,10.89
2022-11-16T02:10:34.346Z,10.85
2022-11-16T02:13:16.099Z,10.82
2022-11-16T02:16:04.320Z,10.79
2022-11-16T02:18:42.532Z,10.76
2022-11-16T02:21:30.605Z,10.90
2022-11-16T02:24:18.863Z,10.48
2022-11-16T02:27:16.436Z,10.79
2022-11-16T02:29:47.488Z,10.73
2022-11-16T02:32:31.460Z,10.50
2022-11-16T02:35:15.635Z,10.09
2022-11-16T02:37:57.812Z,10.48
2022-11-16T02:40:27.473Z,10.50
2022-11-16T02:43:17.735Z,10.53
2022-11-16T02:45:48.647Z,10.49
2022-11-16T02:48:22.465Z,9.99
2022-11-16T02:50:51.783Z,10.05
2022-11-16T02:53:20.460Z,10.47
2022-11-16T02:55:46.916Z,10.00
2022-11-16T02:58:16.960Z,10.03
2022-11-16T03:00:46.391Z,10.04
2022-11-16T03:03:35.281Z,10.44
2022-11-16T03:06:24.645Z,10.45
2022-11-16T03:09:14.392Z,10.47
2022-11-16T03:11:47.463Z,10.32
2022-11-16T03:14:18.617Z,9.96
2022-11-16T03:16:50.957Z,10.32
2022-11-16T03:19:25.229Z,10.22
2022-11-16T03:22:02.817Z,10.41
2022-11-16T03:24:29.500Z,10.43
2022-11-16T03:27:08.838Z,10.07
2022-11-16T03:30:07.555Z,9.97
2022-11-16T03:32:43.095Z,10.39
2022-11-16T03:35:14.660Z,10.32
2022-11-16T03:37:43.003Z,9.76
2022-11-16T03:40:11.535Z,10.25
2022-11-16T03:42:39.489Z,10.18
2022-11-16T03:45:07.232Z,10.16
2022-11-16T03:47:33.846Z,10.15
2022-11-16T03:50:00.297Z,10.11
2022-11-16T03:52:26.874Z,10.01
2022-11-16T03:54:53.376Z,10.00
2022-11-16T03:57:19.790Z,10.03
2022-11-16T03:59:46.204Z,9.59
2022-11-16T04:02:12.704Z,9.83
2022-11-16T04:04:39.072Z,9.67
2022-11-16T04:07:05.515Z,9.89
2022-11-16T04:09:31.917Z,9.84
2022-11-16T04:11:58.292Z,9.60
2022-11-16T04:14:27.065Z,9.38
2022-11-16T04:16:54.529Z,9.29
2022-11-16T04:19:21.123Z,9.65
2022-11-16T04:21:53.421Z,9.61
2022-11-16T04:24:23.530Z,9.29
2022-11-16T04:26:54.624Z,9.11
2022-11-16T04:29:21.081Z,9.12
2022-11-16T04:31:47.484Z,9.09
2022-11-16T04:34:13.856Z,9.42
2022-11-16T04:36:40.262Z,9.37
2022-11-16T04:39:06.663Z,9.07
2022-11-16T04:41:34.074Z,9.23
2022-11-16T04:44:00.549Z,9.13
2022-11-16T04:46:27.016Z,9.06
2022-11-16T04:48:53.405Z,8.73
2022-11-16T04:51:19.803Z,8.83
2022-11-16T04:53:46.188Z,9.01
2022-11-16T04:56:12.583Z,8.95
2022-11-16T04:58:38.962Z,8.93
2022-11-16T05:01:05.486Z,8.78
2022-11-16T05:03:32.059Z,8.38
2022-11-16T05:05:58.556Z,8.40
2022-11-16T05:08:24.932Z,8.76
2022-11-16T05:10:51.772Z,8.68
2022-11-16T05:13:18.240Z,8.62
2022-11-16T05:15:47.718Z,8.59
2022-11-16T05:18:14.178Z,8.50
2022-11-16T05:20:40.629Z,8.04
2022-11-16T05:23:07.015Z,8.41
2022-11-16T05:25:36.683Z,8.42
2022-11-16T05:28:03.641Z,8.00
2022-11-16T05:30:30.024Z,8.42
2022-11-16T05:32:56.403Z,8.24
2022-11-16T05:35:22.869Z,7.92
2022-11-16T05:37:49.229Z,8.12
2022-11-16T05:40:15.883Z,7.69
2022-11-16T05:42:42.320Z,8.04
2022-11-16T05:45:09.104Z,7.64
2022-11-16T05:47:35.602Z,7.92
2022-11-16T05:50:02.046Z,7.96
2022-11-16T05:52:28.456Z,7.97
2022-11-16T05:54:54.943Z,7.92
2022-11-16T05:57:21.358Z,7.90
2022-11-16T05:59:47.768Z,7.82
2022-11-16T06:02:14.275Z,7.76
2022-11-16T06:04:40.674Z,7.75
2022-11-16T06:07:07.143Z,7.77
2022-11-16T06:09:33.620Z,7.80
2022-11-16T06:12:00.038Z,7.39
2022-11-16T06:14:26.451Z,7.42
2022-11-16T06:16:52.888Z,7.74
2022-11-16T06:19:19.319Z,7.73
2022-11-16T06:21:45.737Z,7.79
2022-11-16T06:24:12.169Z,7.72
2022-11-16T06:26:38.661Z,7.49
2022-11-16T06:29:05.152Z,7.69
2022-11-16T06:31:31.577Z,7.34
2022-11-16T06:33:58.049Z,7.64
2022-11-16T06:36:24.667Z,7.62
2022-11-16T06:38:51.142Z,7.67
2022-11-16T06:41:17.665Z,7.65
2022-11-16T06:43:44.401Z,7.50
2022-11-16T06:46:10.817Z,7.69
2022-11-16T06:48:37.498Z,7.57
2022-11-16T06:51:04.325Z,7.64
2022-11-16T06:53:30.718Z,7.49
2022-11-16T06:56:01.951Z,7.58
2022-11-16T06:58:30.184Z,7.28
2022-11-16T07:00:56.846Z,7.68
2022-11-16T07:03:23.464Z,7.62
2022-11-16T07:05:49.907Z,7.60
2022-11-16T07:08:16.283Z,7.57
2022-11-16T07:10:42.729Z,7.65
2022-11-16T07:13:09.166Z,7.64
2022-11-16T07:15:35.564Z,7.23
2022-11-16T07:18:06.460Z,7.60
2022-11-16T07:20:33.815Z,7.66
2022-11-16T07:23:01.830Z,7.60
2022-11-16T07:25:28.864Z,7.25
2022-11-16T07:27:55.338Z,7.67
2022-11-16T07:30:22.402Z,7.66
2022-11-16T07:32:48.776Z,7.65
2022-11-16T07:35:15.231Z,7.59
2022-11-16T07:37:41.619Z,7.62
2022-11-16T07:40:08.757Z,7.71
2022-11-16T07:42:35.298Z,7.35
2022-11-16T07:45:01.727Z,7.70
2022-11-16T07:47:28.128Z,7.34
2022-11-16T07:49:54.547Z,7.68
2022-11-16T07:52:20.991Z,7.74
2022-11-16T07:54:47.385Z,7.36
2022-11-16T07:57:13.778Z,7.65
2022-11-16T07:59:40.158Z,7.41
2022-11-16T08:02:06.590Z,7.88
2022-11-16T08:04:33.042Z,7.82
2022-11-16T08:06:59.477Z,7.55
2022-11-16T08:09:25.929Z,7.93
2022-11-16T08:11:52.341Z,7.99
2022-11-16T08:14:18.773Z,7.93
2022-11-16T08:16:45.183Z,7.97
2022-11-16T08:19:11.565Z,8.00
2022-11-16T08:21:37.981Z,8.01
2022-11-16T08:24:04.799Z,8.07
2022-11-16T08:26:31.292Z,8.04
2022-11-16T08:28:57.765Z,8.18
2022-11-16T08:31:27.281Z,8.11
2022-11-16T08:33:54.183Z,8.12
2022-11-16T08:36:21.146Z,8.05
2022-11-16T08:38:49.700Z,8.19
2022-11-16T08:41:17.316Z,8.18
2022-11-16T08:43:44.135Z,8.29
2022-11-16T08:46:11.446Z,8.11
2022-11-16T08:48:38.253Z,7.91
2022-11-16T08:51:18.613Z,8.36
2022-11-16T08:53:45.977Z,8.27
2022-11-16T08:56:12.584Z,8.02
2022-11-16T08:58:40.394Z,8.45
2022-11-16T09:01:15.074Z,8.49
2022-11-16T09:03:42.366Z,8.68
2022-11-16T09:06:10.528Z,8.63
2022-11-16T09:08:40.087Z,8.29
2022-11-16T09:11:12.995Z,8.25
2022-11-16T09:13:39.890Z,8.37
2022-11-16T09:16:06.481Z,8.69
2022-11-16T09:18:34.167Z,8.81
2022-11-16T09:21:00.932Z,8.67
2022-11-16T09:23:28.148Z,8.93
2022-11-16T09:25:55.122Z,8.68
2022-11-16T09:28:22.325Z,8.51
2022-11-16T09:30:50.896Z,9.04
2022-11-16T09:33:17.418Z,9.03
2022-11-16T09:35:44.030Z,8.87
2022-11-16T09:38:12.653Z,9.21
2022-11-16T09:40:45.988Z,9.33
2022-11-16T09:43:18.251Z,9.38
2022-11-16T09:46:06.169Z,10.11
2022-11-16T09:48:37.337Z,10.92
2022-11-16T09:51:07.531Z,11.17
2022-11-16T09:53:52.934Z,11.18
2022-11-16T09:56:28.204Z,10.54
2022-11-16T09:58:59.240Z,10.72
2022-11-16T10:01:51.494Z,10.62
2022-11-16T10:04:47.615Z,11.15
2022-11-16T10:07:23.126Z,11.49
2022-11-16T10:09:49.795Z,11.53
2022-11-16T10:12:28.240Z,10.93
2022-11-16T10:15:16.444Z,11.01
2022-11-16T10:17:48.270Z,10.45
2022-11-16T10:20:45.091Z,10.16
2022-11-16T10:23:26.607Z,10.06
2022-11-16T10:25:57.666Z,10.10
2022-11-16T10:28:45.865Z,10.04
2022-11-16T10:31:26.195Z,10.10
2022-11-16T10:33:57.033Z,9.95
2022-11-16T10:36:25.824Z,9.64
2022-11-16T10:38:53.824Z,10.01
2022-11-16T10:41:30.339Z,9.56
2022-11-16T10:43:59.050Z,9.93
2022-11-16T10:46:40.311Z,9.97
2022-11-16T10:49:16.496Z,9.79
2022-11-16T10:51:43.159Z,9.64
2022-11-16T10:54:17.730Z,9.91
2022-11-16T10:56:49.355Z,10.02
2022-11-16T10:59:19.023Z,10.02
2022-11-16T11:01:50.218Z,10.05
2022-11-16T11:04:27.581Z,9.94
2022-11-16T11:07:02.415Z,8.85
2022-11-16T11:09:34.593Z,10.04
2022-11-16T11:12:02.557Z,10.02
2022-11-16T11:14:29.064Z,10.15
2022-11-16T11:16:55.589Z,10.11
2022-11-16T11:19:29.409Z,10.18
2022-11-16T11:22:00.657Z,9.81
2022-11-16T11:24:44.760Z,9.94
2022-11-16T11:27:12.255Z,10.38
2022-11-16T11:29:42.278Z,10.40
2022-11-16T11:32:20.759Z,10.19
2022-11-16T11:34:53.595Z,10.45
2022-11-16T11:37:25.336Z,10.15
2022-11-16T11:40:07.908Z,10.00
2022-11-16T11:42:34.396Z,10.19
2022-11-16T11:45:07.622Z,10.00
2022-11-16T11:47:58.956Z,10.09
2022-11-16T11:50:43.929Z,10.30
2022-11-16T11:53:10.282Z,10.38
2022-11-16T11:55:39.972Z,10.16
2022-11-16T11:58:13.743Z,10.51
2022-11-16T12:01:23.750Z,10.75
2022-11-16T12:04:16.437Z,10.75
2022-11-16T12:06:55.041Z,10.72
2022-11-16T12:09:27.293Z,10.62
2022-11-16T12:12:02.802Z,10.39
2022-11-16T12:14:47.122Z,10.64
2022-11-16T12:17:28.066Z,10.58
2022-11-16T12:20:13.288Z,10.68
2022-11-16T12:22:48.585Z,10.86
2022-11-16T12:25:23.152Z,10.83
2022-11-16T12:28:54.315Z,10.83
2022-11-16T12:31:43.025Z,10.84
2022-11-16T12:34:30.938Z,10.79
2022-11-16T12:37:09.592Z,10.93
2022-11-16T12:39:44.802Z,10.81
2022-11-16T12:42:55.681Z,11.08
2022-11-16T12:45:47.216Z,11.65
2022-11-16T12:48:23.554Z,11.77
2022-11-16T12:51:11.917Z,11.59
2022-11-16T12:54:06.243Z,11.03
2022-11-16T12:57:00.363Z,10.95
2022-11-16T13:00:08.621Z,11.00
2022-11-16T13:02:56.524Z,10.68
2022-11-16T13:05:37.928Z,10.93
2022-11-16T13:08:16.116Z,10.61
2022-11-16T13:10:46.244Z,10.93
2022-11-16T13:13:40.602Z,10.93
2022-11-16T13:16:07.256Z,10.79
2022-11-16T13:18:37.584Z,10.45
2022-11-16T13:21:16.045Z,10.91
2022-11-16T13:24:00.736Z,10.97
2022-11-16T13:26:40.598Z,10.53
2022-11-16T13:29:30.017Z,10.95
2022-11-16T13:32:32.118Z,11.03
2022-11-16T13:35:00.091Z,10.84
2022-11-16T13:37:38.629Z,11.36
2022-11-16T13:40:05.163Z,11.43
2022-11-16T13:42:38.884Z,11.30
2022-11-16T13:45:27.014Z,11.34
2022-11-16T13:47:56.800Z,11.26
2022-11-16T13:50:37.412Z,11.15
2022-11-16T13:56:00.659Z,11.18
2022-11-16T13:58:29.751Z,11.04
2022-11-16T14:01:04.364Z,10.71
2022-11-16T14:03:34.260Z,10.93
2022-11-16T14:06:00.844Z,10.79
2022-11-16T14:08:27.187Z,10.76
2022-11-16T14:10:53.630Z,10.73
2022-11-16T14:13:35.450Z,10.70
2022-11-16T14:16:17.167Z,10.68
2022-11-16T14:18:44.235Z,10.65
2022-11-16T14:21:19.715Z,10.86
2022-11-16T14:24:08.168Z,11.03
2022-11-16T14:26:53.739Z,11.14
2022-11-16T14:29:29.466Z,11.22
2022-11-16T14:31:59.030Z,11.24
2022-11-16T14:34:43.634Z,11.17
2022-11-16T14:37:35.483Z,10.88
2022-11-16T14:40:17.068Z,10.89
2022-11-16T14:43:15.477Z,10.79
2022-11-16T14:45:40.717Z,10.69
2022-11-16T14:48:20.134Z,10.74
2022-11-16T14:51:07.538Z,10.63
2022-11-16T14:53:41.257Z,10.39
2022-11-16T14:56:13.739Z,10.37
2022-11-16T14:58:51.239Z,10.24
2022-11-16T15:01:19.089Z,10.51
2022-11-16T15:03:55.706Z,10.50
2022-11-16T15:06:24.811Z,10.52
2022-11-16T15:08:59.416Z,10.14
2022-11-16T15:11:29.658Z,10.44
2022-11-16T15:13:56.183Z,10.44
2022-11-16T15:16:22.715Z,10.43
2022-11-16T15:18:59.842Z,10.10
2022-11-16T15:21:26.709Z,10.34
2022-11-16T15:24:23.319Z,10.30
2022-11-16T15:26:40.046Z,10.18
2022-11-16T15:29:13.301Z,10.02
2022-11-16T15:31:42.354Z,10.16
2022-11-16T15:34:13.243Z,10.06
2022-11-16T15:36:41.042Z,10.03
2022-11-16T15:39:22.932Z,9.91
2022-11-16T15:41:51.243Z,9.73
2022-11-16T15:44:20.179Z,9.98
2022-11-16T15:46:53.158Z,9.97
2022-11-16T15:49:29.776Z,9.86
2022-11-16T15:52:00.293Z,9.82
2022-11-16T15:54:34.922Z,9.55
2022-11-16T15:57:09.224Z,9.81
2022-11-16T15:59:37.385Z,9.80
2022-11-16T16:02:04.670Z,9.75
2022-11-16T16:04:31.209Z,9.72
2022-11-16T16:06:59.796Z,9.73
2022-11-16T16:09:27.870Z,9.48
2022-11-16T16:12:13.942Z,9.68
2022-11-16T16:14:40.408Z,9.68
2022-11-16T16:17:09.010Z,9.61
2022-11-16T16:19:35.355Z,9.69
2022-11-16T16:22:03.509Z,9.58
2022-11-16T16:24:38.222Z,9.48
2022-11-16T16:27:22.431Z,9.62
2022-11-16T16:29:51.166Z,9.61
2022-11-16T16:32:27.706Z,9.49
2022-11-16T16:34:56.463Z,9.52
2022-11-16T16:37:23.457Z,9.59
2022-11-16T16:39:49.859Z,9.37
2022-11-16T16:42:17.427Z,9.43
2022-11-16T16:44:45.065Z,9.31
2022-11-16T16:47:12.039Z,9.35
2022-11-16T16:49:38.772Z,9.25
2022-11-16T16:52:06.310Z,9.23
2022-11-16T16:54:33.007Z,9.08
2022-11-16T16:56:59.702Z,9.17
2022-11-16T16:59:26.107Z,8.83
2022-11-16T17:01:52.720Z,9.12
2022-11-16T17:04:19.628Z,9.15
2022-11-16T17:06:46.767Z,8.75
2022-11-16T17:09:13.891Z,9.04
2022-11-16T17:11:40.301Z,9.17
2022-11-16T17:14:06.720Z,9.17
2022-11-16T17:16:33.606Z,9.18
2022-11-16T17:19:00.099Z,8.77
2022-11-16T17:21:26.791Z,9.17
2022-11-16T17:23:54.182Z,9.21
2022-11-16T17:26:20.680Z,9.16
2022-11-16T17:28:47.519Z,8.69
2022-11-16T17:31:14.501Z,9.20
2022-11-16T17:33:42.133Z,9.13
2022-11-16T17:36:11.834Z,9.13
2022-11-16T17:38:38.854Z,9.03
2022-11-16T17:41:08.692Z,9.13
2022-11-16T17:43:35.851Z,9.17
2022-11-16T17:46:04.126Z,9.07
2022-11-16T17:48:30.602Z,9.30
2022-11-16T17:50:57.203Z,9.28
2022-11-16T17:53:25.280Z,8.97
2022-11-16T17:55:55.008Z,8.88
2022-11-16T17:58:21.750Z,9.19
2022-11-16T18:00:49.717Z,8.92
2022-11-16T18:03:16.384Z,9.28
2022-11-16T18:05:43.215Z,9.28
2022-11-16T18:08:09.897Z,9.35
2022-11-16T18:10:37.090Z,9.32
2022-11-16T18:13:05.183Z,9.16
2022-11-16T18:15:41.943Z,9.38
2022-11-16T18:18:08.914Z,9.01
2022-11-16T18:20:37.194Z,9.30
2022-11-16T18:23:04.668Z,9.27
2022-11-16T18:25:34.325Z,9.36
2022-11-16T18:28:00.713Z,9.37
2022-11-16T18:30:27.120Z,9.40
2022-11-16T18:32:54.072Z,9.53
2022-11-16T18:35:20.469Z,9.31
2022-11-16T18:37:46.893Z,9.36
2022-11-16T18:40:13.716Z,9.30
2022-11-16T18:42:40.132Z,9.35
2022-11-16T18:45:07.312Z,9.04
2022-11-16T18:47:34.198Z,9.02
2022-11-16T18:50:00.641Z,8.92
2022-11-16T18:52:27.080Z,8.96
2022-11-16T18:54:53.470Z,8.98
2022-11-16T18:57:19.912Z,9.33
2022-11-16T18:59:46.327Z,9.38
2022-11-16T19:02:12.807Z,9.39
2022-11-16T19:04:39.259Z,9.33
2022-11-16T19:07:06.157Z,9.39
2022-11-16T19:09:32.699Z,9.45
2022-11-16T19:11:59.245Z,9.41
2022-11-16T19:14:25.657Z,9.37
2022-11-16T19:16:56.968Z,9.42
2022-11-16T19:19:24.163Z,9.38
2022-11-16T19:21:50.609Z,9.35
2022-11-16T19:24:17.007Z,9.08
2022-11-16T19:26:43.522Z,9.32
2022-11-16T19:29:09.965Z,9.28
2022-11-16T19:31:36.387Z,9.02
2022-11-16T19:34:05.014Z,9.36
2022-11-16T19:36:33.161Z,9.42
2022-11-16T19:38:59.777Z,8.95
2022-11-16T19:41:27.280Z,9.39
2022-11-16T19:43:57.262Z,9.06
2022-11-16T19:46:23.973Z,9.41
2022-11-16T19:48:51.023Z,9.40
2022-11-16T19:51:20.741Z,9.34
2022-11-16T19:53:47.352Z,9.42
2022-11-16T19:56:15.987Z,9.50
2022-11-16T19:58:43.257Z,9.11
2022-11-16T20:01:18.698Z,9.58
2022-11-16T20:03:46.402Z,9.55
2022-11-16T20:06:18.922Z,9.70
2022-11-16T20:08:50.580Z,9.61
2022-11-16T20:11:19.582Z,9.65
2022-11-16T20:13:47.456Z,9.27
2022-11-16T20:16:15.489Z,9.72
2022-11-16T20:18:43.184Z,9.70
2022-11-16T20:21:16.357Z,9.63
2022-11-16T20:23:42.750Z,9.45
2022-11-16T20:26:11.391Z,9.66
2022-11-16T20:28:39.582Z,9.72
2022-11-16T20:31:12.327Z,9.69
2022-11-16T20:33:39.608Z,9.73
2022-11-16T20:36:08.743Z,9.81
2022-11-16T20:38:36.454Z,9.85
2022-11-16T20:41:14.014Z,9.85
2022-11-16T20:43:41.999Z,9.49
2022-11-16T20:46:10.680Z,9.63
2022-11-16T20:48:37.656Z,9.80
2022-11-16T20:51:05.343Z,9.74
2022-11-16T20:53:32.476Z,9.38
2022-11-16T20:55:59.415Z,9.65
2022-11-16T20:58:26.087Z,9.59
2022-11-16T21:00:52.510Z,9.15
2022-11-16T21:03:18.978Z,9.49
2022-11-16T21:05:50.102Z,9.41
2022-11-16T21:08:16.543Z,9.39
2022-11-16T21:10:43.000Z,9.23
2022-11-16T21:13:14.336Z,9.37
2022-11-16T21:15:40.732Z,8.94
2022-11-16T21:18:07.124Z,9.24
2022-11-16T21:20:33.881Z,9.26
2022-11-16T21:23:00.315Z,9.39
2022-11-16T21:25:26.834Z,9.36
2022-11-16T21:27:53.267Z,9.18
2022-11-16T21:30:19.853Z,9.31
2022-11-16T21:32:46.406Z,9.16
2022-11-16T21:35:12.771Z,9.15
2022-11-16T21:37:39.191Z,9.24
2022-11-16T21:40:06.081Z,8.78
2022-11-16T21:42:32.532Z,9.30
2022-11-16T21:44:58.954Z,9.19
2022-11-16T21:47:25.500Z,8.76
2022-11-16T21:50:16.891Z,9.20
2022-11-16T21:52:38.355Z,9.13
2022-11-16T21:55:05.198Z,8.86
2022-11-16T21:57:31.622Z,9.16
2022-11-16T21:59:57.999Z,8.61
2022-11-16T22:02:24.432Z,8.80
2022-11-16T22:04:50.836Z,8.69
2022-11-16T22:07:17.417Z,9.22
2022-11-16T22:09:43.869Z,9.17
2022-11-16T22:12:10.353Z,9.16
2022-11-16T22:14:36.805Z,9.19
2022-11-16T22:17:03.258Z,9.15
2022-11-16T22:19:29.665Z,9.02
2022-11-16T22:21:56.109Z,9.15
2022-11-16T22:24:22.619Z,8.73
2022-11-16T22:26:49.348Z,9.14
2022-11-16T22:29:15.742Z,9.17
2022-11-16T22:31:42.187Z,9.19
2022-11-16T22:34:08.608Z,9.18
2022-11-16T22:36:35.042Z,9.14
2022-11-16T22:39:01.419Z,8.66
2022-11-16T22:41:27.932Z,9.16
2022-11-16T22:43:54.566Z,8.97
2022-11-16T22:46:21.000Z,8.56
2022-11-16T22:48:47.549Z,9.18
2022-11-16T22:51:21.918Z,9.19
2022-11-16T22:54:02.234Z,9.22
2022-11-16T22:56:30.334Z,9.20
2022-11-16T22:58:56.908Z,9.27
2022-11-16T23:01:23.839Z,9.28
2022-11-16T23:03:50.829Z,9.17
2022-11-16T23:06:18.174Z,9.32
2022-11-16T23:08:44.642Z,9.31
2022-11-16T23:11:13.702Z,9.28
2022-11-16T23:13:40.096Z,8.89
2022-11-16T23:16:06.674Z,9.45
2022-11-16T23:18:33.057Z,9.38
2022-11-16T23:20:59.568Z,8.98
2022-11-16T23:23:26.130Z,8.97
2022-11-16T23:25:52.520Z,8.94
2022-11-16T23:28:19.759Z,8.83
2022-11-16T23:30:46.330Z,9.40
2022-11-16T23:33:12.926Z,9.40
2022-11-16T23:35:39.476Z,9.41
2022-11-16T23:38:07.541Z,8.91
2022-11-16T23:40:37.196Z,9.52
2022-11-16T23:43:05.022Z,8.92
2022-11-16T23:45:31.501Z,8.87
2022-11-16T23:47:57.917Z,8.84
2022-11-16T23:50:27.454Z,9.42
2022-11-16T23:52:54.183Z,8.75
2022-11-16T23:55:20.585Z,9.44
2022-11-16T23:57:47.067Z,8.95
